sensor_id;sensor_type;location;lat;lon;timestamp;P1;durP1;ratioP1;P2;durP2;ratioP2
4758;SDS011;2393;50.560;12.636;2023-04-03T00:01:24;4.10;;;1.27;;
4758;SDS011;2393;50.560;12.636;2023-04-03T00:03:52;1.60;;;1.50;;
4758;SDS011;2393;50.560;12.636;2023-04-03T00:06:20;7.05;;;2.13;;
4758;SDS011;2393;50.560;12.636;2023-04-03T00:08:49;1.48;;;1.38;;
4758;SDS011;2393;50.560;12.636;2023-04-03T00:11:18;3.85;;;1.80;;
4758;SDS011;2393;50.560;12.636;2023-04-03T00:13:47;2.80;;;1.20;;
4758;SDS011;2393;50.560;12.636;2023-04-03T00:16:17;2.33;;;1.10;;
4758;SDS011;2393;50.560;12.636;2023-04-03T00:18:46;2.30;;;1.70;;
4758;SDS011;2393;50.560;12.636;2023-04-03T00:21:14;2.25;;;1.23;;
4758;SDS011;2393;50.560;12.636;2023-04-03T00:23:42;1.17;;;1.17;;
4758;SDS011;2393;50.560;12.636;2023-04-03T00:26:11;1.35;;;1.25;;
4758;SDS011;2393;50.560;12.636;2023-04-03T00:28:40;1.85;;;1.65;;
4758;SDS011;2393;50.560;12.636;2023-04-03T00:31:08;0.88;;;0.88;;
4758;SDS011;2393;50.560;12.636;2023-04-03T00:33:41;12.88;;;2.05;;
4758;SDS011;2393;50.560;12.636;2023-04-03T00:36:23;11.35;;;1.73;;
4758;SDS011;2393;50.560;12.636;2023-04-03T00:38:52;2.88;;;1.45;;
4758;SDS011;2393;50.560;12.636;2023-04-03T00:41:21;3.50;;;1.15;;
4758;SDS011;2393;50.560;12.636;2023-04-03T00:43:49;3.83;;;1.60;;
4758;SDS011;2393;50.560;12.636;2023-04-03T00:46:17;7.53;;;1.50;;
4758;SDS011;2393;50.560;12.636;2023-04-03T00:48:47;4.97;;;1.60;;
4758;SDS011;2393;50.560;12.636;2023-04-03T00:51:19;5.28;;;1.30;;
4758;SDS011;2393;50.560;12.636;2023-04-03T00:53:52;3.42;;;1.45;;
4758;SDS011;2393;50.560;12.636;2023-04-03T00:56:24;7.63;;;1.50;;
4758;SDS011;2393;50.560;12.636;2023-04-03T00:58:57;2.80;;;1.30;;
4758;SDS011;2393;50.560;12.636;2023-04-03T01:01:29;1.27;;;1.25;;
4758;SDS011;2393;50.560;12.636;2023-04-03T01:03:59;3.58;;;1.88;;
4758;SDS011;2393;50.560;12.636;2023-04-03T01:06:30;3.53;;;2.60;;
4758;SDS011;2393;50.560;12.636;2023-04-03T01:09:07;3.80;;;1.73;;
4758;SDS011;2393;50.560;12.636;2023-04-03T01:11:36;7.28;;;2.00;;
4758;SDS011;2393;50.560;12.636;2023-04-03T01:14:04;8.57;;;1.80;;
4758;SDS011;2393;50.560;12.636;2023-04-03T01:16:32;1.63;;;1.50;;
4758;SDS011;2393;50.560;12.636;2023-04-03T01:19:02;3.70;;;1.40;;
4758;SDS011;2393;50.560;12.636;2023-04-03T01:24:33;5.60;;;1.30;;
4758;SDS011;2393;50.560;12.636;2023-04-03T01:27:05;2.13;;;1.63;;
4758;SDS011;2393;50.560;12.636;2023-04-03T01:29:35;2.03;;;1.73;;
4758;SDS011;2393;50.560;12.636;2023-04-03T01:32:06;4.28;;;1.65;;
4758;SDS011;2393;50.560;12.636;2023-04-03T01:34:34;3.20;;;1.85;;
4758;SDS011;2393;50.560;12.636;2023-04-03T01:37:03;2.67;;;1.42;;
4758;SDS011;2393;50.560;12.636;2023-04-03T01:39:31;1.75;;;1.65;;
4758;SDS011;2393;50.560;12.636;2023-04-03T01:42:00;2.65;;;1.60;;
4758;SDS011;2393;50.560;12.636;2023-04-03T01:44:33;5.65;;;1.80;;
4758;SDS011;2393;50.560;12.636;2023-04-03T01:47:01;4.63;;;1.52;;
4758;SDS011;2393;50.560;12.636;2023-04-03T01:49:31;1.67;;;1.58;;
4758;SDS011;2393;50.560;12.636;2023-04-03T01:51:59;8.13;;;1.80;;
4758;SDS011;2393;50.560;12.636;2023-04-03T01:54:27;3.05;;;1.20;;
4758;SDS011;2393;50.560;12.636;2023-04-03T01:56:55;6.72;;;1.83;;
4758;SDS011;2393;50.560;12.636;2023-04-03T01:59:23;4.85;;;1.10;;
4758;SDS011;2393;50.560;12.636;2023-04-03T02:01:53;3.95;;;1.48;;
4758;SDS011;2393;50.560;12.636;2023-04-03T02:04:21;1.42;;;1.33;;
4758;SDS011;2393;50.560;12.636;2023-04-03T02:06:54;2.78;;;1.88;;
4758;SDS011;2393;50.560;12.636;2023-04-03T02:09:22;3.83;;;1.70;;
4758;SDS011;2393;50.560;12.636;2023-04-03T02:11:51;9.18;;;2.08;;
4758;SDS011;2393;50.560;12.636;2023-04-03T02:14:20;12.30;;;1.10;;
4758;SDS011;2393;50.560;12.636;2023-04-03T02:16:53;3.55;;;1.52;;
4758;SDS011;2393;50.560;12.636;2023-04-03T02:19:21;2.28;;;1.40;;
4758;SDS011;2393;50.560;12.636;2023-04-03T02:21:50;5.85;;;2.08;;
4758;SDS011;2393;50.560;12.636;2023-04-03T02:24:19;1.95;;;0.80;;
4758;SDS011;2393;50.560;12.636;2023-04-03T02:26:48;2.35;;;2.10;;
4758;SDS011;2393;50.560;12.636;2023-04-03T02:29:16;1.83;;;1.63;;
4758;SDS011;2393;50.560;12.636;2023-04-03T02:31:44;6.53;;;1.85;;
4758;SDS011;2393;50.560;12.636;2023-04-03T02:34:13;1.80;;;1.70;;
4758;SDS011;2393;50.560;12.636;2023-04-03T02:36:44;8.02;;;1.60;;
4758;SDS011;2393;50.560;12.636;2023-04-03T02:39:20;8.55;;;1.48;;
4758;SDS011;2393;50.560;12.636;2023-04-03T02:41:49;7.93;;;1.52;;
4758;SDS011;2393;50.560;12.636;2023-04-03T02:44:22;7.00;;;1.45;;
4758;SDS011;2393;50.560;12.636;2023-04-03T02:46:51;8.63;;;2.10;;
4758;SDS011;2393;50.560;12.636;2023-04-03T02:49:19;5.28;;;1.50;;
4758;SDS011;2393;50.560;12.636;2023-04-03T02:51:47;1.48;;;1.23;;
4758;SDS011;2393;50.560;12.636;2023-04-03T02:54:17;4.13;;;1.50;;
4758;SDS011;2393;50.560;12.636;2023-04-03T02:56:51;2.67;;;1.40;;
4758;SDS011;2393;50.560;12.636;2023-04-03T02:59:19;7.72;;;1.35;;
4758;SDS011;2393;50.560;12.636;2023-04-03T03:01:48;3.00;;;1.13;;
4758;SDS011;2393;50.560;12.636;2023-04-03T03:04:16;1.75;;;1.42;;
4758;SDS011;2393;50.560;12.636;2023-04-03T03:06:44;1.40;;;1.30;;
4758;SDS011;2393;50.560;12.636;2023-04-03T03:09:13;2.25;;;0.95;;
4758;SDS011;2393;50.560;12.636;2023-04-03T03:11:41;10.57;;;1.67;;
4758;SDS011;2393;50.560;12.636;2023-04-03T03:14:11;1.77;;;1.17;;
4758;SDS011;2393;50.560;12.636;2023-04-03T03:16:39;4.30;;;1.08;;
4758;SDS011;2393;50.560;12.636;2023-04-03T03:19:07;1.75;;;1.33;;
4758;SDS011;2393;50.560;12.636;2023-04-03T03:21:36;1.27;;;1.17;;
4758;SDS011;2393;50.560;12.636;2023-04-03T03:24:05;1.45;;;1.10;;
4758;SDS011;2393;50.560;12.636;2023-04-03T03:26:34;7.72;;;1.85;;
4758;SDS011;2393;50.560;12.636;2023-04-03T03:29:03;10.55;;;1.63;;
4758;SDS011;2393;50.560;12.636;2023-04-03T03:31:32;3.03;;;1.20;;
4758;SDS011;2393;50.560;12.636;2023-04-03T03:34:00;9.07;;;1.75;;
4758;SDS011;2393;50.560;12.636;2023-04-03T03:36:28;1.60;;;1.50;;
4758;SDS011;2393;50.560;12.636;2023-04-03T03:38:56;1.55;;;1.45;;
4758;SDS011;2393;50.560;12.636;2023-04-03T03:41:25;15.52;;;1.50;;
4758;SDS011;2393;50.560;12.636;2023-04-03T03:43:53;2.72;;;2.10;;
4758;SDS011;2393;50.560;12.636;2023-04-03T03:46:21;5.25;;;2.25;;
4758;SDS011;2393;50.560;12.636;2023-04-03T03:48:51;1.70;;;1.40;;
4758;SDS011;2393;50.560;12.636;2023-04-03T03:51:19;2.38;;;1.48;;
4758;SDS011;2393;50.560;12.636;2023-04-03T03:53:47;3.92;;;1.58;;
4758;SDS011;2393;50.560;12.636;2023-04-03T03:56:17;4.13;;;2.03;;
4758;SDS011;2393;50.560;12.636;2023-04-03T03:58:46;3.15;;;1.80;;
4758;SDS011;2393;50.560;12.636;2023-04-03T04:01:16;2.92;;;1.45;;
4758;SDS011;2393;50.560;12.636;2023-04-03T04:03:46;2.78;;;1.58;;
4758;SDS011;2393;50.560;12.636;2023-04-03T04:06:21;5.13;;;1.50;;
4758;SDS011;2393;50.560;12.636;2023-04-03T04:08:51;6.82;;;1.92;;
4758;SDS011;2393;50.560;12.636;2023-04-03T04:11:19;3.08;;;1.55;;
4758;SDS011;2393;50.560;12.636;2023-04-03T04:13:49;2.55;;;1.77;;
4758;SDS011;2393;50.560;12.636;2023-04-03T04:16:20;7.95;;;1.58;;
4758;SDS011;2393;50.560;12.636;2023-04-03T04:18:48;9.50;;;2.40;;
4758;SDS011;2393;50.560;12.636;2023-04-03T04:21:29;2.00;;;0.90;;
4758;SDS011;2393;50.560;12.636;2023-04-03T04:23:58;6.28;;;2.33;;
4758;SDS011;2393;50.560;12.636;2023-04-03T04:26:27;7.00;;;2.10;;
4758;SDS011;2393;50.560;12.636;2023-04-03T04:28:55;6.30;;;1.80;;
4758;SDS011;2393;50.560;12.636;2023-04-03T04:31:24;2.08;;;1.88;;
4758;SDS011;2393;50.560;12.636;2023-04-03T04:33:52;6.65;;;1.90;;
4758;SDS011;2393;50.560;12.636;2023-04-03T04:36:28;6.40;;;1.98;;
4758;SDS011;2393;50.560;12.636;2023-04-03T04:38:59;2.13;;;1.95;;
4758;SDS011;2393;50.560;12.636;2023-04-03T04:41:27;2.92;;;2.13;;
4758;SDS011;2393;50.560;12.636;2023-04-03T04:43:58;2.63;;;2.47;;
4758;SDS011;2393;50.560;12.636;2023-04-03T04:46:27;13.20;;;2.55;;
4758;SDS011;2393;50.560;12.636;2023-04-03T04:48:57;4.22;;;2.40;;
4758;SDS011;2393;50.560;12.636;2023-04-03T04:51:29;2.97;;;2.75;;
4758;SDS011;2393;50.560;12.636;2023-04-03T04:54:15;6.93;;;3.40;;
4758;SDS011;2393;50.560;12.636;2023-04-03T04:56:46;12.95;;;3.00;;
4758;SDS011;2393;50.560;12.636;2023-04-03T04:59:14;4.00;;;3.13;;
4758;SDS011;2393;50.560;12.636;2023-04-03T05:01:44;6.68;;;4.20;;
4758;SDS011;2393;50.560;12.636;2023-04-03T05:04:15;5.10;;;2.80;;
4758;SDS011;2393;50.560;12.636;2023-04-03T05:06:49;6.78;;;3.60;;
4758;SDS011;2393;50.560;12.636;2023-04-03T05:09:21;4.50;;;2.80;;
4758;SDS011;2393;50.560;12.636;2023-04-03T05:11:51;5.82;;;3.13;;
4758;SDS011;2393;50.560;12.636;2023-04-03T05:14:23;7.88;;;3.10;;
4758;SDS011;2393;50.560;12.636;2023-04-03T05:16:51;6.90;;;3.28;;
4758;SDS011;2393;50.560;12.636;2023-04-03T05:19:26;3.75;;;3.45;;
4758;SDS011;2393;50.560;12.636;2023-04-03T05:21:57;9.90;;;3.40;;
4758;SDS011;2393;50.560;12.636;2023-04-03T05:24:25;2.60;;;2.33;;
4758;SDS011;2393;50.560;12.636;2023-04-03T05:26:53;10.80;;;3.35;;
4758;SDS011;2393;50.560;12.636;2023-04-03T05:29:22;5.43;;;3.28;;
4758;SDS011;2393;50.560;12.636;2023-04-03T05:31:50;6.00;;;3.40;;
4758;SDS011;2393;50.560;12.636;2023-04-03T05:34:18;3.35;;;2.33;;
4758;SDS011;2393;50.560;12.636;2023-04-03T05:36:49;3.80;;;2.88;;
4758;SDS011;2393;50.560;12.636;2023-04-03T05:39:19;3.40;;;3.17;;
4758;SDS011;2393;50.560;12.636;2023-04-03T05:41:47;7.25;;;3.30;;
4758;SDS011;2393;50.560;12.636;2023-04-03T05:44:15;3.22;;;2.30;;
4758;SDS011;2393;50.560;12.636;2023-04-03T05:46:44;1.67;;;1.58;;
4758;SDS011;2393;50.560;12.636;2023-04-03T05:49:13;2.42;;;1.92;;
4758;SDS011;2393;50.560;12.636;2023-04-03T05:51:41;1.60;;;1.50;;
4758;SDS011;2393;50.560;12.636;2023-04-03T05:54:20;2.63;;;2.25;;
4758;SDS011;2393;50.560;12.636;2023-04-03T05:56:55;3.20;;;1.80;;
4758;SDS011;2393;50.560;12.636;2023-04-03T05:59:24;5.05;;;2.85;;
4758;SDS011;2393;50.560;12.636;2023-04-03T06:01:55;2.85;;;1.90;;
4758;SDS011;2393;50.560;12.636;2023-04-03T06:04:24;3.17;;;1.50;;
4758;SDS011;2393;50.560;12.636;2023-04-03T06:06:53;2.75;;;2.55;;
4758;SDS011;2393;50.560;12.636;2023-04-03T06:09:27;2.03;;;1.92;;
4758;SDS011;2393;50.560;12.636;2023-04-03T06:11:56;6.03;;;2.45;;
4758;SDS011;2393;50.560;12.636;2023-04-03T06:14:26;4.65;;;2.05;;
4758;SDS011;2393;50.560;12.636;2023-04-03T06:16:54;5.80;;;2.85;;
4758;SDS011;2393;50.560;12.636;2023-04-03T06:19:22;4.15;;;2.42;;
4758;SDS011;2393;50.560;12.636;2023-04-03T06:21:54;7.30;;;2.03;;
4758;SDS011;2393;50.560;12.636;2023-04-03T06:24:23;4.60;;;2.70;;
4758;SDS011;2393;50.560;12.636;2023-04-03T06:26:53;5.68;;;2.40;;
4758;SDS011;2393;50.560;12.636;2023-04-03T06:29:20;4.57;;;2.17;;
4758;SDS011;2393;50.560;12.636;2023-04-03T06:31:49;3.53;;;2.40;;
4758;SDS011;2393;50.560;12.636;2023-04-03T06:34:17;4.75;;;2.20;;
4758;SDS011;2393;50.560;12.636;2023-04-03T06:36:46;2.03;;;1.92;;
4758;SDS011;2393;50.560;12.636;2023-04-03T06:39:17;1.50;;;1.40;;
4758;SDS011;2393;50.560;12.636;2023-04-03T06:41:47;3.53;;;1.50;;
4758;SDS011;2393;50.560;12.636;2023-04-03T06:44:17;4.00;;;1.60;;
4758;SDS011;2393;50.560;12.636;2023-04-03T06:46:45;1.90;;;1.50;;
4758;SDS011;2393;50.560;12.636;2023-04-03T06:49:13;1.77;;;1.65;;
4758;SDS011;2393;50.560;12.636;2023-04-03T06:51:41;3.38;;;1.80;;
4758;SDS011;2393;50.560;12.636;2023-04-03T06:54:09;2.08;;;1.83;;
4758;SDS011;2393;50.560;12.636;2023-04-03T06:56:37;6.43;;;2.20;;
4758;SDS011;2393;50.560;12.636;2023-04-03T06:59:05;5.22;;;2.00;;
4758;SDS011;2393;50.560;12.636;2023-04-03T07:01:36;4.75;;;2.00;;
4758;SDS011;2393;50.560;12.636;2023-04-03T07:04:04;3.85;;;2.15;;
4758;SDS011;2393;50.560;12.636;2023-04-03T07:06:33;4.03;;;1.25;;
4758;SDS011;2393;50.560;12.636;2023-04-03T07:09:01;3.33;;;1.52;;
4758;SDS011;2393;50.560;12.636;2023-04-03T07:11:29;8.30;;;2.30;;
4758;SDS011;2393;50.560;12.636;2023-04-03T07:13:58;2.10;;;1.77;;
4758;SDS011;2393;50.560;12.636;2023-04-03T07:16:26;4.50;;;2.25;;
4758;SDS011;2393;50.560;12.636;2023-04-03T07:18:55;1.35;;;1.30;;
4758;SDS011;2393;50.560;12.636;2023-04-03T07:21:23;3.78;;;1.30;;
4758;SDS011;2393;50.560;12.636;2023-04-03T07:23:52;1.50;;;1.45;;
4758;SDS011;2393;50.560;12.636;2023-04-03T07:26:20;2.35;;;1.70;;
4758;SDS011;2393;50.560;12.636;2023-04-03T07:28:49;2.75;;;1.60;;
4758;SDS011;2393;50.560;12.636;2023-04-03T07:31:17;1.48;;;1.40;;
4758;SDS011;2393;50.560;12.636;2023-04-03T07:33:45;1.83;;;1.30;;
4758;SDS011;2393;50.560;12.636;2023-04-03T07:36:16;2.33;;;1.35;;
4758;SDS011;2393;50.560;12.636;2023-04-03T07:38:45;1.85;;;1.70;;
4758;SDS011;2393;50.560;12.636;2023-04-03T07:41:13;7.17;;;1.40;;
4758;SDS011;2393;50.560;12.636;2023-04-03T07:43:43;1.42;;;1.30;;
4758;SDS011;2393;50.560;12.636;2023-04-03T07:46:13;2.63;;;1.47;;
4758;SDS011;2393;50.560;12.636;2023-04-03T07:48:43;4.05;;;1.42;;
4758;SDS011;2393;50.560;12.636;2023-04-03T07:51:19;2.40;;;1.57;;
4758;SDS011;2393;50.560;12.636;2023-04-03T07:53:47;3.40;;;1.50;;
4758;SDS011;2393;50.560;12.636;2023-04-03T07:56:16;3.90;;;1.50;;
4758;SDS011;2393;50.560;12.636;2023-04-03T07:58:44;5.57;;;1.70;;
4758;SDS011;2393;50.560;12.636;2023-04-03T08:01:12;2.35;;;1.33;;
4758;SDS011;2393;50.560;12.636;2023-04-03T08:03:40;2.30;;;1.07;;
4758;SDS011;2393;50.560;12.636;2023-04-03T08:06:09;3.90;;;1.70;;
4758;SDS011;2393;50.560;12.636;2023-04-03T08:08:44;1.40;;;1.30;;
4758;SDS011;2393;50.560;12.636;2023-04-03T08:11:13;1.45;;;1.35;;
4758;SDS011;2393;50.560;12.636;2023-04-03T08:13:41;4.53;;;1.80;;
4758;SDS011;2393;50.560;12.636;2023-04-03T08:16:10;1.75;;;1.50;;
4758;SDS011;2393;50.560;12.636;2023-04-03T08:18:39;1.15;;;1.15;;
4758;SDS011;2393;50.560;12.636;2023-04-03T08:21:07;1.75;;;1.65;;
4758;SDS011;2393;50.560;12.636;2023-04-03T08:23:35;3.80;;;1.75;;
4758;SDS011;2393;50.560;12.636;2023-04-03T08:26:09;2.70;;;1.35;;
4758;SDS011;2393;50.560;12.636;2023-04-03T08:28:39;1.38;;;1.27;;
4758;SDS011;2393;50.560;12.636;2023-04-03T08:31:09;8.15;;;1.38;;
4758;SDS011;2393;50.560;12.636;2023-04-03T08:33:38;1.50;;;1.40;;
4758;SDS011;2393;50.560;12.636;2023-04-03T08:36:07;3.22;;;1.40;;
4758;SDS011;2393;50.560;12.636;2023-04-03T08:38:43;1.30;;;1.20;;
4758;SDS011;2393;50.560;12.636;2023-04-03T08:41:14;1.83;;;1.73;;
4758;SDS011;2393;50.560;12.636;2023-04-03T08:43:52;1.88;;;1.33;;
4758;SDS011;2393;50.560;12.636;2023-04-03T08:46:31;3.90;;;1.50;;
4758;SDS011;2393;50.560;12.636;2023-04-03T08:49:10;1.58;;;1.45;;
4758;SDS011;2393;50.560;12.636;2023-04-03T08:51:43;1.35;;;1.20;;
4758;SDS011;2393;50.560;12.636;2023-04-03T08:54:19;2.13;;;1.88;;
4758;SDS011;2393;50.560;12.636;2023-04-03T08:56:54;2.38;;;0.70;;
4758;SDS011;2393;50.560;12.636;2023-04-03T08:59:24;1.30;;;1.30;;
4758;SDS011;2393;50.560;12.636;2023-04-03T09:01:56;1.30;;;1.30;;
4758;SDS011;2393;50.560;12.636;2023-04-03T09:04:26;2.20;;;1.30;;
4758;SDS011;2393;50.560;12.636;2023-04-03T09:07:02;6.03;;;2.28;;
4758;SDS011;2393;50.560;12.636;2023-04-03T09:09:37;1.92;;;1.60;;
4758;SDS011;2393;50.560;12.636;2023-04-03T09:12:12;4.70;;;1.40;;
4758;SDS011;2393;50.560;12.636;2023-04-03T09:14:49;1.60;;;1.37;;
4758;SDS011;2393;50.560;12.636;2023-04-03T09:17:27;2.45;;;1.48;;
4758;SDS011;2393;50.560;12.636;2023-04-03T09:20:07;4.87;;;1.50;;
4758;SDS011;2393;50.560;12.636;2023-04-03T09:22:46;4.80;;;1.40;;
4758;SDS011;2393;50.560;12.636;2023-04-03T09:25:19;1.53;;;1.20;;
4758;SDS011;2393;50.560;12.636;2023-04-03T09:27:51;4.10;;;1.37;;
4758;SDS011;2393;50.560;12.636;2023-04-03T09:30:20;5.27;;;1.77;;
4758;SDS011;2393;50.560;12.636;2023-04-03T09:32:50;4.77;;;1.13;;
4758;SDS011;2393;50.560;12.636;2023-04-03T09:35:20;2.43;;;1.37;;
4758;SDS011;2393;50.560;12.636;2023-04-03T09:38:17;3.13;;;2.00;;
4758;SDS011;2393;50.560;12.636;2023-04-03T09:40:47;3.50;;;1.40;;
4758;SDS011;2393;50.560;12.636;2023-04-03T09:43:23;1.20;;;1.10;;
4758;SDS011;2393;50.560;12.636;2023-04-03T09:45:53;2.50;;;1.50;;
4758;SDS011;2393;50.560;12.636;2023-04-03T09:48:23;2.50;;;1.37;;
4758;SDS011;2393;50.560;12.636;2023-04-03T09:50:57;1.00;;;0.93;;
4758;SDS011;2393;50.560;12.636;2023-04-03T09:53:32;2.67;;;1.30;;
4758;SDS011;2393;50.560;12.636;2023-04-03T09:56:03;4.13;;;1.90;;
4758;SDS011;2393;50.560;12.636;2023-04-03T09:58:47;5.70;;;2.60;;
4758;SDS011;2393;50.560;12.636;2023-04-03T10:01:21;1.37;;;1.10;;
4758;SDS011;2393;50.560;12.636;2023-04-03T10:04:04;2.00;;;0.83;;
4758;SDS011;2393;50.560;12.636;2023-04-03T10:06:35;4.77;;;1.10;;
4758;SDS011;2393;50.560;12.636;2023-04-03T10:09:17;2.20;;;1.63;;
4758;SDS011;2393;50.560;12.636;2023-04-03T10:11:58;1.57;;;0.80;;
4758;SDS011;2393;50.560;12.636;2023-04-03T10:14:29;3.70;;;1.20;;
4758;SDS011;2393;50.560;12.636;2023-04-03T10:16:59;2.97;;;1.10;;
4758;SDS011;2393;50.560;12.636;2023-04-03T10:19:38;4.40;;;1.37;;
4758;SDS011;2393;50.560;12.636;2023-04-03T10:22:13;1.73;;;1.23;;
4758;SDS011;2393;50.560;12.636;2023-04-03T10:24:54;2.87;;;1.80;;
4758;SDS011;2393;50.560;12.636;2023-04-03T10:27:35;5.83;;;1.47;;
4758;SDS011;2393;50.560;12.636;2023-04-03T10:30:21;0.80;;;0.80;;
4758;SDS011;2393;50.560;12.636;2023-04-03T10:33:01;1.30;;;1.10;;
4758;SDS011;2393;50.560;12.636;2023-04-03T10:35:42;1.70;;;1.30;;
4758;SDS011;2393;50.560;12.636;2023-04-03T10:38:18;1.80;;;1.70;;
4758;SDS011;2393;50.560;12.636;2023-04-03T10:40:57;3.03;;;1.70;;
4758;SDS011;2393;50.560;12.636;2023-04-03T10:43:33;0.87;;;0.87;;
4758;SDS011;2393;50.560;12.636;2023-04-03T10:46:08;2.00;;;1.53;;
4758;SDS011;2393;50.560;12.636;2023-04-03T10:48:49;1.53;;;1.20;;
4758;SDS011;2393;50.560;12.636;2023-04-03T10:51:27;4.10;;;1.17;;
4758;SDS011;2393;50.560;12.636;2023-04-03T10:54:02;1.50;;;1.20;;
4758;SDS011;2393;50.560;12.636;2023-04-03T10:56:35;5.30;;;1.27;;
4758;SDS011;2393;50.560;12.636;2023-04-03T10:59:14;5.00;;;1.00;;
4758;SDS011;2393;50.560;12.636;2023-04-03T11:01:51;3.23;;;1.90;;
4758;SDS011;2393;50.560;12.636;2023-04-03T11:04:23;7.50;;;1.33;;
4758;SDS011;2393;50.560;12.636;2023-04-03T11:06:56;4.03;;;1.20;;
4758;SDS011;2393;50.560;12.636;2023-04-03T11:09:27;1.07;;;0.90;;
4758;SDS011;2393;50.560;12.636;2023-04-03T11:11:59;1.08;;;1.08;;
4758;SDS011;2393;50.560;12.636;2023-04-03T11:14:32;1.08;;;1.08;;
4758;SDS011;2393;50.560;12.636;2023-04-03T11:17:05;2.67;;;1.60;;
4758;SDS011;2393;50.560;12.636;2023-04-03T11:19:41;3.83;;;1.70;;
4758;SDS011;2393;50.560;12.636;2023-04-03T11:22:16;1.30;;;1.20;;
4758;SDS011;2393;50.560;12.636;2023-04-03T11:24:54;1.37;;;1.33;;
4758;SDS011;2393;50.560;12.636;2023-04-03T11:27:26;0.98;;;0.90;;
4758;SDS011;2393;50.560;12.636;2023-04-03T11:30:00;1.97;;;1.20;;
4758;SDS011;2393;50.560;12.636;2023-04-03T11:32:34;0.60;;;0.60;;
4758;SDS011;2393;50.560;12.636;2023-04-03T11:35:35;2.77;;;1.10;;
4758;SDS011;2393;50.560;12.636;2023-04-03T11:38:05;1.10;;;1.00;;
4758;SDS011;2393;50.560;12.636;2023-04-03T11:40:34;0.60;;;0.60;;
4758;SDS011;2393;50.560;12.636;2023-04-03T11:43:04;3.33;;;0.80;;
4758;SDS011;2393;50.560;12.636;2023-04-03T11:45:36;1.27;;;1.17;;
4758;SDS011;2393;50.560;12.636;2023-04-03T11:48:29;1.92;;;0.60;;
4758;SDS011;2393;50.560;12.636;2023-04-03T12:12:57;2.93;;;1.30;;
4758;SDS011;2393;50.560;12.636;2023-04-03T12:18:31;3.70;;;0.90;;
4758;SDS011;2393;50.560;12.636;2023-04-03T12:21:08;1.83;;;1.10;;
4758;SDS011;2393;50.560;12.636;2023-04-03T12:23:37;2.50;;;1.10;;
4758;SDS011;2393;50.560;12.636;2023-04-03T12:26:51;4.10;;;1.07;;
4758;SDS011;2393;50.560;12.636;2023-04-03T12:29:33;1.70;;;1.13;;
4758;SDS011;2393;50.560;12.636;2023-04-03T12:32:11;4.73;;;1.20;;
4758;SDS011;2393;50.560;12.636;2023-04-03T12:34:55;1.23;;;1.13;;
4758;SDS011;2393;50.560;12.636;2023-04-03T12:37:48;1.37;;;1.13;;
4758;SDS011;2393;50.560;12.636;2023-04-03T12:40:25;1.70;;;0.93;;
4758;SDS011;2393;50.560;12.636;2023-04-03T12:43:06;1.83;;;1.00;;
4758;SDS011;2393;50.560;12.636;2023-04-03T12:45:44;2.50;;;1.27;;
4758;SDS011;2393;50.560;12.636;2023-04-03T12:48:22;1.20;;;1.20;;
4758;SDS011;2393;50.560;12.636;2023-04-03T12:50:53;3.80;;;1.07;;
4758;SDS011;2393;50.560;12.636;2023-04-03T12:53:24;1.73;;;0.83;;
4758;SDS011;2393;50.560;12.636;2023-04-03T12:55:54;2.50;;;1.00;;
4758;SDS011;2393;50.560;12.636;2023-04-03T12:58:23;1.63;;;1.53;;
4758;SDS011;2393;50.560;12.636;2023-04-03T13:00:59;2.60;;;1.10;;
4758;SDS011;2393;50.560;12.636;2023-04-03T13:03:29;0.80;;;0.70;;
4758;SDS011;2393;50.560;12.636;2023-04-03T13:05:59;1.90;;;1.00;;
4758;SDS011;2393;50.560;12.636;2023-04-03T13:08:32;8.63;;;1.07;;
4758;SDS011;2393;50.560;12.636;2023-04-03T13:11:00;6.73;;;1.33;;
4758;SDS011;2393;50.560;12.636;2023-04-03T13:13:33;1.00;;;0.83;;
4758;SDS011;2393;50.560;12.636;2023-04-03T13:16:07;1.03;;;1.03;;
4758;SDS011;2393;50.560;12.636;2023-04-03T13:18:37;1.33;;;0.97;;
4758;SDS011;2393;50.560;12.636;2023-04-03T13:21:05;6.00;;;1.10;;
4758;SDS011;2393;50.560;12.636;2023-04-03T13:23:40;1.73;;;0.77;;
4758;SDS011;2393;50.560;12.636;2023-04-03T13:26:12;0.50;;;0.50;;
4758;SDS011;2393;50.560;12.636;2023-04-03T13:28:44;1.25;;;1.15;;
4758;SDS011;2393;50.560;12.636;2023-04-03T13:31:17;1.10;;;1.00;;
4758;SDS011;2393;50.560;12.636;2023-04-03T13:33:53;0.50;;;0.50;;
4758;SDS011;2393;50.560;12.636;2023-04-03T13:36:26;0.98;;;0.65;;
4758;SDS011;2393;50.560;12.636;2023-04-03T13:38:59;2.58;;;0.75;;
4758;SDS011;2393;50.560;12.636;2023-04-03T13:41:34;2.50;;;1.00;;
4758;SDS011;2393;50.560;12.636;2023-04-03T13:44:26;2.78;;;1.05;;
4758;SDS011;2393;50.560;12.636;2023-04-03T13:46:59;2.33;;;0.50;;
4758;SDS011;2393;50.560;12.636;2023-04-03T13:49:30;1.35;;;0.95;;
4758;SDS011;2393;50.560;12.636;2023-04-03T13:52:02;2.15;;;0.80;;
4758;SDS011;2393;50.560;12.636;2023-04-03T13:54:51;0.57;;;0.57;;
4758;SDS011;2393;50.560;12.636;2023-04-03T13:57:21;0.93;;;0.80;;
4758;SDS011;2393;50.560;12.636;2023-04-03T13:59:50;2.70;;;0.85;;
4758;SDS011;2393;50.560;12.636;2023-04-03T14:02:19;0.85;;;0.65;;
4758;SDS011;2393;50.560;12.636;2023-04-03T14:04:51;0.98;;;0.65;;
4758;SDS011;2393;50.560;12.636;2023-04-03T14:07:22;1.30;;;0.73;;
4758;SDS011;2393;50.560;12.636;2023-04-03T14:09:53;3.45;;;1.40;;
4758;SDS011;2393;50.560;12.636;2023-04-03T14:12:25;1.50;;;1.00;;
4758;SDS011;2393;50.560;12.636;2023-04-03T14:14:57;6.38;;;1.35;;
4758;SDS011;2393;50.560;12.636;2023-04-03T14:17:27;6.38;;;1.52;;
4758;SDS011;2393;50.560;12.636;2023-04-03T14:19:56;1.48;;;0.90;;
4758;SDS011;2393;50.560;12.636;2023-04-03T14:22:26;3.85;;;2.05;;
4758;SDS011;2393;50.560;12.636;2023-04-03T14:24:57;7.60;;;1.80;;
4758;SDS011;2393;50.560;12.636;2023-04-03T14:27:26;3.35;;;1.20;;
4758;SDS011;2393;50.560;12.636;2023-04-03T14:29:56;1.50;;;1.40;;
4758;SDS011;2393;50.560;12.636;2023-04-03T14:32:25;2.38;;;1.10;;
4758;SDS011;2393;50.560;12.636;2023-04-03T14:34:54;2.38;;;0.95;;
4758;SDS011;2393;50.560;12.636;2023-04-03T14:37:24;3.33;;;0.50;;
4758;SDS011;2393;50.560;12.636;2023-04-03T14:39:57;2.50;;;2.00;;
4758;SDS011;2393;50.560;12.636;2023-04-03T14:42:27;3.42;;;1.60;;
4758;SDS011;2393;50.560;12.636;2023-04-03T14:44:57;4.45;;;0.85;;
4758;SDS011;2393;50.560;12.636;2023-04-03T14:47:28;2.05;;;0.70;;
4758;SDS011;2393;50.560;12.636;2023-04-03T14:49:58;1.63;;;1.52;;
4758;SDS011;2393;50.560;12.636;2023-04-03T14:52:29;1.30;;;0.80;;
4758;SDS011;2393;50.560;12.636;2023-04-03T14:55:00;2.35;;;1.55;;
4758;SDS011;2393;50.560;12.636;2023-04-03T14:57:29;3.78;;;1.20;;
4758;SDS011;2393;50.560;12.636;2023-04-03T14:59:58;3.55;;;3.30;;
4758;SDS011;2393;50.560;12.636;2023-04-03T15:02:28;19.13;;;6.80;;
4758;SDS011;2393;50.560;12.636;2023-04-03T15:04:58;18.30;;;7.78;;
4758;SDS011;2393;50.560;12.636;2023-04-03T15:07:30;5.13;;;2.65;;
4758;SDS011;2393;50.560;12.636;2023-04-03T15:10:05;2.47;;;2.28;;
4758;SDS011;2393;50.560;12.636;2023-04-03T15:12:42;3.17;;;1.15;;
4758;SDS011;2393;50.560;12.636;2023-04-03T15:15:14;8.18;;;2.67;;
4758;SDS011;2393;50.560;12.636;2023-04-03T15:17:43;1.98;;;1.50;;
4758;SDS011;2393;50.560;12.636;2023-04-03T15:20:14;2.30;;;1.95;;
4758;SDS011;2393;50.560;12.636;2023-04-03T15:22:44;8.88;;;2.22;;
4758;SDS011;2393;50.560;12.636;2023-04-03T15:25:19;2.33;;;1.77;;
4758;SDS011;2393;50.560;12.636;2023-04-03T15:27:47;2.85;;;1.45;;
4758;SDS011;2393;50.560;12.636;2023-04-03T15:30:16;7.78;;;1.88;;
4758;SDS011;2393;50.560;12.636;2023-04-03T15:32:45;10.50;;;1.85;;
4758;SDS011;2393;50.560;12.636;2023-04-03T15:35:14;2.42;;;1.48;;
4758;SDS011;2393;50.560;12.636;2023-04-03T15:37:42;1.10;;;1.10;;
4758;SDS011;2393;50.560;12.636;2023-04-03T15:40:10;3.25;;;1.13;;
4758;SDS011;2393;50.560;12.636;2023-04-03T15:42:40;0.60;;;0.60;;
4758;SDS011;2393;50.560;12.636;2023-04-03T15:45:09;1.40;;;0.60;;
4758;SDS011;2393;50.560;12.636;2023-04-03T15:47:37;4.38;;;0.88;;
4758;SDS011;2393;50.560;12.636;2023-04-03T15:50:06;2.25;;;1.13;;
4758;SDS011;2393;50.560;12.636;2023-04-03T15:52:34;4.30;;;1.40;;
4758;SDS011;2393;50.560;12.636;2023-04-03T15:55:03;3.15;;;0.70;;